METAR rapporter

 

EKAH - Tirstrup (civ/Mi, Denmark
Afstand fra stationen: SSV 25km
Opdateret: 25/07/2021 17:50
Mest skyet
Mest skyet
 Vind fra Ø
Vind: Ø 13 km/h
Temperatur: 23°C
Dugpunkt: 19°C
Fugtighed: 78%
Barometer: 1013 hPa
Skydække: Mest skyet
Sigtbarhed: 10 km
Skyhøjde: Få skyer 2256 m
Mest skyet 3048 m
2021/07/25 15:50 EKAH 251550Z AUTO 10007KT 9999 FEW074/// BKN100/// 23/19 Q1013
EKYT - Alborg, Denmark
Afstand fra stationen: NV 91km
Opdateret: 25/07/2021 17:50
Mest skyet
Mest skyet
 Vind fra Ø
Vind: Ø 26 km/h
Temperatur: 23°C
Dugpunkt: 17°C
Fugtighed: 69%
Barometer: 1013 hPa
Skydække: Mest skyet
Sigtbarhed: 10 km
Skyhøjde: Mest skyet 2957 m
2021/07/25 15:50 EKYT 251550Z AUTO 10014KT 9999 BKN097/// 23/17 Q1013
EKKA - Karup (dan-Afb), Denmark
Afstand fra stationen: V 107km
Opdateret: 25/07/2021 17:59
Mest skyet
Mest skyet
 Vind fra ØSØ
Vind: ØSØ 30 km/h, Vindstød: 50 km/h
Temperatur: 25°C
Dugpunkt: 13°C
Fugtighed: 47%
Barometer: 1011 hPa
Skydække: Mest skyet
Sigtbarhed: 10 km
Skyhøjde: Få skyer 2408 m
Mest skyet 4267 m
Mest skyet 4877 m
2021/07/25 15:59 EKKA 251559Z AUTO 11016G27KT 9999 FEW079/// BKN140/// BKN160/// 25/13 Q1011
 
EKOD - Odense/Beldringe, Denmark
Afstand fra stationen: SSV 116km
Opdateret: 25/07/2021 16:50
Klart
Klart
 Vind fra ØSØ
Vind: ØSØ 19 km/h
Temperatur: 22°C
Dugpunkt: 19°C
Fugtighed: 83%
Barometer: 1011 hPa
Oversigt: Klart
Sigtbarhed: Mere end 10 km
2021/07/25 14:50 EKOD 251450Z 11010KT 070V130 CAVOK 22/19 Q1011
EKBI - Billund Airport, Denmark
Afstand fra stationen: SV 134km
Opdateret: 25/07/2021 17:50
Få skyer
Få skyer
 Vind fra Ø
Vind: Ø 22 km/h
Temperatur: 23°C
Dugpunkt: 17°C
Fugtighed: 69%
Barometer: 1011 hPa
Skydække: Få skyer
Sigtbarhed: 10 km
Skyhøjde: Mest skyet 975 m
Få skyer 1219 m
2021/07/25 15:50 EKBI 251550Z 09012KT 9999 BKN032 FEW040TCU 23/17 Q1011
EKCH - Copenhagen/Kastr, Denmark
Afstand fra stationen: SØ 148km
Opdateret: 25/07/2021 17:50
Få skyer
Få skyer
 Vind fra Ø
Vind: Ø 24 km/h
Temperatur: 25°C
Dugpunkt: 16°C
Fugtighed: 57%
Barometer: 1013 hPa
Skydække: Få skyer
Sigtbarhed: 10 km
Skyhøjde: Få skyer 3962 m
2021/07/25 15:50 EKCH 251550Z AUTO 09013KT 9999 FEW130/// 25/16 Q1013 NOSIG